NORTHERN QUEENS  -  Freeze Warning Freeze Warning        SOUTHERN QUEENS  -  Freeze Warning Freeze Warning      

Active alerts

Northern Queens
  Details for Northern Queens Freeze Warning
Southern Queens
  Details for Southern Queens Freeze Warning


WXM80 ListenWXM80 Stop

You find our weather info also at:

UK Metoffice

WeatherCloud

Weather Underground

Northeastern Weather Network

AWEKAS

Citizen Weather Observer Program (CWOP)

HAMweather, WeatherForYou, PWS Weather


Weather Underground History page Text

Daily Summary for November 14, 2018 Units:  English    Metric   Both
« Previous Day
Next Day »
Daily Weekly Monthly Yearly Custom
  Current: High: Low: Average:
Temperature: 37.0 °F 43.0 °F 36.9 °F 39.3 °F
Dew Point: 24.0 °F 34.1 °F 24.0 °F 27 °F
Humidity: 59 % 71 % 55 % 61 %
Wind Speed: 4.2 mph 13.1 mph 0.3 mph 6.5 mph
Wind Gust: 12.7 mph 24.2 mph - -
Wind:SW - - WNW
Pressure: 30.31 in 30.31 in 30.09 in -
Precipitation: 0.00 in      
Historical Graphs
 
 
Tabular Data for November 14, 2018
Time Temperature Dew Point Pressure Wind Wind Speed Wind Gust Humidity Rainfall Rate (Hourly)
00:04 43.0 °F 33.9 °F 30.09 in NW 6.0 mph 10.4 mph 70 % 0.00 in
00:09 43.0 °F 33.9 °F 30.09 in WNW 5.5 mph 8.1 mph 70 % 0.00 in
00:14 42.9 °F 33.8 °F 30.09 in NNW 8.5 mph 16.1 mph 70 % 0.00 in
00:19 42.9 °F 33.8 °F 30.10 in WNW 4.4 mph 10.4 mph 70 % 0.00 in
00:24 42.9 °F 33.8 °F 30.11 in NNW 1.8 mph 9.2 mph 70 % 0.00 in
00:29 42.9 °F 33.4 °F 30.11 in North 7.0 mph 12.7 mph 69 % 0.00 in
00:34 42.9 °F 33.8 °F 30.11 in NNW 4.4 mph 5.8 mph 70 % 0.00 in
00:39 42.9 °F 33.8 °F 30.11 in NNW 4.7 mph 11.5 mph 70 % 0.00 in
00:44 42.9 °F 34.1 °F 30.12 in WNW 4.6 mph 11.5 mph 71 % 0.00 in
00:49 42.8 °F 33.7 °F 30.11 in NW 5.3 mph 11.5 mph 70 % 0.00 in
00:54 42.7 °F 33.2 °F 30.11 in NNW 9.6 mph 12.0 mph 69 % 0.00 in
00:59 42.7 °F 32.9 °F 30.12 in West 7.5 mph 18.4 mph 68 % 0.00 in
01:04 42.6 °F 31.7 °F 30.12 in NNW 6.0 mph 16.1 mph 65 % 0.00 in
01:09 42.4 °F 30.3 °F 30.12 in NNW 6.2 mph 24.2 mph 62 % 0.00 in
01:14 42.3 °F 29.8 °F 30.13 in North 12.7 mph 21.0 mph 61 % 0.00 in
01:19 42.2 °F 28.0 °F 30.14 in WNW 10.7 mph 20.7 mph 57 % 0.00 in
01:24 42.1 °F 27.9 °F 30.13 in WNW 9.8 mph 17.3 mph 57 % 0.00 in
01:29 42.0 °F 27.9 °F 30.13 in NW 6.7 mph 10.4 mph 57 % 0.00 in
01:34 41.8 °F 27.7 °F 30.13 in NW 4.5 mph 10.4 mph 57 % 0.00 in
01:39 41.7 °F 28.0 °F 30.14 in NW 5.8 mph 13.8 mph 58 % 0.00 in
01:44 41.6 °F 28.3 °F 30.14 in NNW 6.1 mph 11.0 mph 59 % 0.00 in
01:49 41.5 °F 27.8 °F 30.14 in WNW 6.0 mph 12.7 mph 58 % 0.00 in
01:54 41.3 °F 28.0 °F 30.14 in NNW 4.3 mph 9.2 mph 59 % 0.00 in
01:59 41.2 °F 28.4 °F 30.14 in WNW 4.8 mph 11.5 mph 60 % 0.00 in
02:04 41.1 °F 28.7 °F 30.15 in WNW 0.3 mph 4.0 mph 61 % 0.00 in
02:09 41.0 °F 28.2 °F 30.15 in WNW 2.9 mph 10.4 mph 60 % 0.00 in
02:14 40.9 °F 28.5 °F 30.15 in NNW 4.9 mph 6.9 mph 61 % 0.00 in
02:19 40.8 °F 28.4 °F 30.15 in NNW 3.8 mph 8.1 mph 61 % 0.00 in
02:24 40.7 °F 28.3 °F 30.15 in WNW 6.9 mph 11.5 mph 61 % 0.00 in
02:29 40.6 °F 27.8 °F 30.15 in WNW 5.6 mph 9.2 mph 60 % 0.00 in
02:34 40.4 °F 26.8 °F 30.16 in WNW 7.9 mph 11.5 mph 58 % 0.00 in
02:39 40.3 °F 26.7 °F 30.16 in NW 6.2 mph 17.3 mph 58 % 0.00 in
02:44 40.2 °F 26.2 °F 30.16 in West 6.6 mph 15.0 mph 57 % 0.00 in
02:49 40.1 °F 26.1 °F 30.16 in WNW 8.0 mph 14.0 mph 57 % 0.00 in
02:54 39.9 °F 25.0 °F 30.17 in NW 8.6 mph 19.6 mph 55 % 0.00 in
02:59 39.8 °F 25.4 °F 30.17 in West 7.4 mph 16.1 mph 56 % 0.00 in
03:04 39.7 °F 24.8 °F 30.17 in NW 9.1 mph 17.3 mph 55 % 0.00 in
03:09 39.6 °F 26.4 °F 30.17 in WNW 7.3 mph 11.5 mph 59 % 0.00 in
03:14 39.6 °F 26.4 °F 30.17 in NNW 9.2 mph 17.3 mph 59 % 0.00 in
03:19 39.4 °F 25.8 °F 30.17 in West 8.4 mph 10.4 mph 58 % 0.00 in
03:24 39.2 °F 25.6 °F 30.17 in WSW 8.9 mph 16.1 mph 58 % 0.00 in
03:29 39.1 °F 24.7 °F 30.18 in WNW 13.1 mph 16.0 mph 56 % 0.00 in
03:34 39.0 °F 25.0 °F 30.17 in NW 5.6 mph 18.4 mph 57 % 0.00 in
03:39 38.9 °F 24.9 °F 30.18 in NW 9.3 mph 11.5 mph 57 % 0.00 in
03:44 38.8 °F 25.3 °F 30.17 in West 5.7 mph 11.5 mph 58 % 0.00 in
03:49 38.6 °F 25.5 °F 30.17 in WNW 5.3 mph 17.3 mph 59 % 0.00 in
03:54 38.6 °F 24.7 °F 30.17 in NW 6.7 mph 11.5 mph 57 % 0.00 in
03:59 38.5 °F 25.8 °F 30.17 in North 3.6 mph 11.5 mph 60 % 0.00 in
04:04 38.4 °F 25.3 °F 30.18 in NNW 8.7 mph 11.5 mph 59 % 0.00 in
04:09 38.4 °F 25.3 °F 30.19 in NW 3.4 mph 11.5 mph 59 % 0.00 in
04:14 38.3 °F 26.0 °F 30.19 in NW 4.3 mph 8.1 mph 61 % 0.00 in
04:19 38.2 °F 25.5 °F 30.19 in WNW 4.3 mph 11.5 mph 60 % 0.00 in
04:24 38.2 °F 25.9 °F 30.19 in NW 4.6 mph 5.0 mph 61 % 0.00 in
04:29 38.1 °F 25.4 °F 30.20 in NW 6.2 mph 11.5 mph 60 % 0.00 in
04:34 38.0 °F 25.3 °F 30.20 in North 6.7 mph 9.2 mph 60 % 0.00 in
04:39 38.0 °F 25.3 °F 30.20 in NW 10.9 mph 18.0 mph 60 % 0.00 in
04:44 37.9 °F 25.6 °F 30.20 in NNW 4.4 mph 10.4 mph 61 % 0.00 in
04:49 37.9 °F 24.8 °F 30.21 in WSW 3.3 mph 11.5 mph 59 % 0.00 in
04:54 37.8 °F 24.7 °F 30.21 in West 8.1 mph 14.0 mph 59 % 0.00 in
04:59 37.8 °F 25.1 °F 30.21 in NW 5.3 mph 8.1 mph 60 % 0.00 in
05:04 37.7 °F 25.8 °F 30.22 in WNW 6.2 mph 10.0 mph 62 % 0.00 in
05:09 37.7 °F 25.1 °F 30.22 in WNW 4.1 mph 11.5 mph 60 % 0.00 in
05:14 37.6 °F 25.4 °F 30.22 in WNW 5.1 mph 10.4 mph 61 % 0.00 in
05:19 37.6 °F 25.7 °F 30.22 in West 2.8 mph 10.4 mph 62 % 0.00 in
05:24 37.5 °F 25.3 °F 30.23 in WNW 7.7 mph 11.0 mph 61 % 0.00 in
05:29 37.5 °F 24.9 °F 30.22 in NW 8.6 mph 15.0 mph 60 % 0.00 in
05:34 37.4 °F 25.6 °F 30.23 in NW 6.0 mph 11.5 mph 62 % 0.00 in
05:39 37.4 °F 25.2 °F 30.23 in WNW 9.7 mph 15.0 mph 61 % 0.00 in
05:44 37.4 °F 25.2 °F 30.23 in WNW 6.0 mph 11.5 mph 61 % 0.00 in
05:49 37.3 °F 24.7 °F 30.23 in WNW 6.0 mph 21.9 mph 60 % 0.00 in
05:54 37.3 °F 25.1 °F 30.24 in West 5.9 mph 16.1 mph 61 % 0.00 in
05:59 37.3 °F 25.1 °F 30.24 in WNW 2.4 mph 15.0 mph 61 % 0.00 in
06:04 37.3 °F 24.7 °F 30.24 in NW 8.8 mph 21.9 mph 60 % 0.00 in
06:09 37.3 °F 25.1 °F 30.25 in NNW 7.9 mph 12.7 mph 61 % 0.00 in
06:14 37.3 °F 24.7 °F 30.25 in WNW 6.6 mph 18.4 mph 60 % 0.00 in
06:19 37.2 °F 25.0 °F 30.25 in WNW 4.0 mph 15.0 mph 61 % 0.00 in
06:24 37.1 °F 24.9 °F 30.26 in NNW 10.2 mph 14.0 mph 61 % 0.00 in
06:29 37.1 °F 24.5 °F 30.26 in NNW 3.4 mph 12.7 mph 60 % 0.00 in
06:34 37.1 °F 25.3 °F 30.26 in NW 10.3 mph 16.1 mph 62 % 0.00 in
06:39 37.1 °F 25.7 °F 30.27 in WNW 5.7 mph 11.5 mph 63 % 0.00 in
06:44 37.1 °F 26.0 °F 30.28 in West 6.4 mph 12.7 mph 64 % 0.00 in
06:49 37.1 °F 25.7 °F 30.27 in NW 8.5 mph 10.4 mph 63 % 0.00 in
06:54 37.1 °F 25.7 °F 30.28 in WNW 7.1 mph 11.5 mph 63 % 0.00 in
06:59 37.2 °F 25.8 °F 30.27 in NNE 6.4 mph 17.3 mph 63 % 0.00 in
07:04 37.2 °F 26.1 °F 30.28 in North 6.8 mph 13.8 mph 64 % 0.00 in
07:09 37.1 °F 25.3 °F 30.28 in NNW 8.3 mph 18.4 mph 62 % 0.00 in
07:14 37.1 °F 25.3 °F 30.28 in WSW 7.4 mph 17.3 mph 62 % 0.00 in
07:19 37.0 °F 25.2 °F 30.29 in NW 7.2 mph 15.0 mph 62 % 0.00 in
07:24 37.0 °F 24.8 °F 30.29 in NW 7.3 mph 10.4 mph 61 % 0.00 in
07:29 36.9 °F 25.1 °F 30.29 in West 8.7 mph 12.7 mph 62 % 0.00 in
07:34 36.9 °F 24.7 °F 30.30 in WSW 5.0 mph 19.6 mph 61 % 0.00 in
07:39 36.9 °F 25.1 °F 30.30 in NW 8.1 mph 15.0 mph 62 % 0.00 in
07:44 36.9 °F 24.7 °F 30.30 in WNW 8.7 mph 12.7 mph 61 % 0.00 in
07:49 37.0 °F 24.8 °F 30.31 in West 5.4 mph 11.0 mph 61 % 0.00 in
07:54 37.0 °F 24.0 °F 30.31 in SW 4.2 mph 12.7 mph 59 % 0.00 in
Crab Meadow Weather
Compliments of Weather Underground - 1.75 mb

Script developed by  Jim McMurry - jmcmurry@mwt.net Adapted for the template by  Wim van der Kuil - Leuven-Template.eu

Weather Terms: Hail - Precipitation in the form of lumps of ice that form during some thunderstorms.